Terminal Aerodrome Forecast
Issued by NWS

Home | Current Version | Previous Version | Text Only | Print | Product List | Glossary On
Versions: 1 2 3 4 5 6 7 8 9 10 11 12
000
FTUS43 KJKL 212337
TAFSME
TAF
KSME 212337Z 2200/2224 VRB03KT P6SM FEW070 BKN150
     FM221100 00000KT P6SM BKN050
     FM221400 VRB03KT P6SM -SHRA VCTS BKN030CB
     FM221700 VRB03KT P6SM -SHRA VCTS BKN015CB=

USA.gov is the U.S. government's official web portal to all federal, state and local government web resources and services.